Time;durP1;ratioP1;P1;durP2;ratioP2;P2;SDS_P1;SDS_P2;PMS_P1;PMS_P2;Temp;Humidity;BMP_temperature;BMP_pressure;BME280_temperature;BME280_humidity;BME280_pressure;Samples;Min_cycle;Max_cycle;Signal;HPM_P1;HPM_P2
2023/12/16 00:01:20;;;;;;;11.23;6.83;;;;;;;6.46;100.00;102428.75;5066609;28;20223;-65
2023/12/16 00:03:46;;;;;;;9.70;4.80;;;;;;;6.29;100.00;102433.84;5055025;28;20262;-64
2023/12/16 00:06:11;;;;;;;7.40;4.93;;;;;;;6.36;100.00;102434.69;5053896;28;20539;-64
2023/12/16 00:08:36;;;;;;;7.93;4.77;;;;;;;6.29;100.00;102436.38;5061755;28;20226;-63
2023/12/16 00:11:02;;;;;;;8.10;4.20;;;;;;;6.30;100.00;102435.53;5069712;27;20243;-64
2023/12/16 00:13:27;;;;;;;11.87;4.70;;;;;;;6.25;100.00;102438.94;5080255;28;20200;-67
2023/12/16 00:15:53;;;;;;;7.60;4.00;;;;;;;6.27;100.00;102434.69;5071109;28;20537;-68
2023/12/16 00:18:18;;;;;;;7.70;4.80;;;;;;;6.37;100.00;102445.78;5071138;28;20181;-68
2023/12/16 00:20:44;;;;;;;8.57;5.13;;;;;;;6.38;100.00;102450.03;5064959;28;20223;-64
2023/12/16 00:23:09;;;;;;;8.73;4.37;;;;;;;6.40;100.00;102450.88;5081301;28;20185;-64
2023/12/16 00:25:34;;;;;;;10.43;4.60;;;;;;;6.44;100.00;102455.16;5056246;28;20182;-65
2023/12/16 00:27:59;;;;;;;8.27;4.33;;;;;;;6.37;100.00;102456.00;5054125;28;20181;-66
2023/12/16 00:30:25;;;;;;;9.23;4.47;;;;;;;6.34;100.00;102455.97;5043098;27;20714;-64
2023/12/16 00:32:50;;;;;;;9.40;4.40;;;;;;;6.29;100.00;102453.44;5049616;28;20198;-66
2023/12/16 00:35:15;;;;;;;6.43;3.90;;;;;;;6.21;100.00;102455.13;5059242;28;20214;-64
2023/12/16 00:37:41;;;;;;;10.43;4.70;;;;;;;6.38;100.00;102460.25;5050138;28;20186;-64
2023/12/16 00:40:07;;;;;;;8.17;3.70;;;;;;;6.43;100.00;102458.56;5050185;28;20670;-64
2023/12/16 00:42:32;;;;;;;8.27;4.00;;;;;;;6.41;100.00;102466.25;5077696;28;20174;-64
2023/12/16 00:44:58;;;;;;;6.73;4.40;;;;;;;6.34;100.00;102464.53;5067253;28;20177;-64
2023/12/16 00:47:23;;;;;;;8.60;4.30;;;;;;;6.36;100.00;102465.34;5062819;28;20247;-64
2023/12/16 00:49:48;;;;;;;7.07;4.03;;;;;;;6.41;100.00;102465.38;5066625;28;20232;-65
2023/12/16 00:52:13;;;;;;;7.93;3.97;;;;;;;6.45;100.00;102461.97;5056493;28;20216;-64
2023/12/16 00:54:39;;;;;;;8.97;4.77;;;;;;;6.42;100.00;102462.81;5059512;28;20188;-64
2023/12/16 00:57:04;;;;;;;10.83;4.10;;;;;;;6.24;100.00;102462.78;5061585;28;20272;-64
2023/12/16 00:59:29;;;;;;;9.00;4.23;;;;;;;6.21;100.00;102455.97;5065638;28;20196;-64
2023/12/16 01:01:55;;;;;;;8.27;4.23;;;;;;;6.21;100.00;102455.13;5055386;28;20570;-64
2023/12/16 01:04:20;;;;;;;9.23;4.13;;;;;;;6.32;100.00;102456.00;5056938;28;20181;-65
2023/12/16 01:06:46;;;;;;;10.47;4.10;;;;;;;6.37;100.00;102451.72;5069221;28;20187;-64
2023/12/16 01:09:11;;;;;;;7.83;3.70;;;;;;;6.41;100.00;102448.34;5067604;28;20193;-64
2023/12/16 01:11:36;;;;;;;10.00;3.53;;;;;;;6.47;100.00;102452.59;5057154;28;20980;-64
2023/12/16 01:14:02;;;;;;;6.93;4.00;;;;;;;6.40;100.00;102445.75;5056371;28;20192;-64
2023/12/16 01:16:28;;;;;;;10.37;3.77;;;;;;;6.42;100.00;102450.03;5060675;28;20193;-64
2023/12/16 01:18:53;;;;;;;8.07;3.33;;;;;;;6.51;100.00;102453.44;5052281;28;20229;-64
2023/12/16 01:21:19;;;;;;;8.87;4.07;;;;;;;6.55;100.00;102467.94;5059739;28;20277;-63
2023/12/16 01:23:44;;;;;;;12.90;4.57;;;;;;;6.61;100.00;102462.81;5058386;28;20633;-64
2023/12/16 01:26:10;;;;;;;7.00;3.40;;;;;;;6.51;100.00;102467.09;5065457;28;20224;-64
2023/12/16 01:28:35;;;;;;;7.80;3.53;;;;;;;6.55;100.00;102468.78;5053339;28;20259;-65
2023/12/16 01:31:00;;;;;;;10.00;3.57;;;;;;;6.61;100.00;102470.47;5056755;28;20402;-64
2023/12/16 01:33:26;;;;;;;6.60;3.40;;;;;;;6.52;100.00;102473.91;5059861;28;20204;-64
2023/12/16 01:35:51;;;;;;;8.50;3.17;;;;;;;6.56;100.00;102467.09;5067101;28;20183;-64
2023/12/16 01:38:16;;;;;;;7.93;3.57;;;;;;;6.49;100.00;102465.38;5062469;28;20181;-64
2023/12/16 01:40:41;;;;;;;9.77;3.70;;;;;;;6.48;100.00;102473.91;5061243;28;20311;-64
2023/12/16 01:43:08;;;;;;;8.90;4.13;;;;;;;6.46;100.00;102479.88;5067362;28;20173;-64
2023/12/16 01:45:33;;;;;;;9.10;3.30;;;;;;;6.13;100.00;102478.97;5067311;28;20260;-64
2023/12/16 01:47:59;;;;;;;8.60;3.50;;;;;;;6.23;100.00;102472.16;5062777;28;20716;-64
2023/12/16 01:50:26;;;;;;;7.73;3.40;;;;;;;5.95;100.00;102476.31;5060156;28;20707;-63
2023/12/16 01:52:52;;;;;;;5.17;2.90;;;;;;;5.73;100.00;102471.16;5075743;28;20239;-63
2023/12/16 01:55:19;;;;;;;9.03;3.63;;;;;;;5.80;100.00;102472.91;5066849;28;20259;-63
2023/12/16 01:57:45;;;;;;;6.17;2.93;;;;;;;5.79;100.00;102468.63;5062196;28;20608;-63
2023/12/16 02:00:11;;;;;;;6.37;3.30;;;;;;;5.91;100.00;102472.91;5057702;28;20231;-63
2023/12/16 02:02:38;;;;;;;8.50;3.27;;;;;;;6.10;100.00;102473.00;5075873;28;20189;-63
2023/12/16 02:05:03;;;;;;;11.77;3.60;;;;;;;6.04;100.00;102471.28;5066239;28;20187;-64
2023/12/16 02:07:29;;;;;;;8.00;3.23;;;;;;;6.00;100.00;102478.94;5057702;28;20181;-65
2023/12/16 02:09:55;;;;;;;8.67;3.93;;;;;;;5.90;100.00;102478.84;5060323;28;20217;-64
2023/12/16 02:12:20;;;;;;;8.77;3.73;;;;;;;5.84;100.00;102478.84;5052888;28;20232;-64
2023/12/16 02:14:46;;;;;;;9.97;4.30;;;;;;;6.09;100.00;102477.25;5074190;28;20650;-64
2023/12/16 02:17:11;;;;;;;8.43;3.77;;;;;;;6.19;100.00;102480.69;5060000;28;20197;-64
2023/12/16 02:19:36;;;;;;;13.17;4.23;;;;;;;6.21;100.00;102483.25;5054274;28;20570;-64
2023/12/16 02:22:02;;;;;;;6.83;3.37;;;;;;;6.22;100.00;102477.28;5059004;28;20350;-64
2023/12/16 02:24:29;;;;;;;7.83;3.57;;;;;;;6.05;100.00;102484.91;5054276;28;20189;-64
2023/12/16 02:26:55;;;;;;;6.93;3.50;;;;;;;5.96;100.00;102491.66;5053893;28;20196;-64
2023/12/16 02:29:20;;;;;;;5.93;3.60;;;;;;;6.06;100.00;102499.38;5046736;28;20258;-64
2023/12/16 02:31:46;;;;;;;8.67;3.90;;;;;;;5.99;100.00;102498.50;5076948;28;20228;-64
2023/12/16 02:34:11;;;;;;;7.63;3.73;;;;;;;6.00;100.00;102504.47;5075972;28;20181;-64
2023/12/16 02:36:36;;;;;;;11.57;3.80;;;;;;;6.06;100.00;102502.78;5073171;28;20173;-64
2023/12/16 02:39:02;;;;;;;8.43;3.53;;;;;;;6.13;100.00;102503.69;5073018;28;20207;-64
2023/12/16 02:41:27;;;;;;;8.17;3.73;;;;;;;6.00;100.00;102500.22;5074293;28;20224;-63
2023/12/16 02:43:52;;;;;;;7.97;3.23;;;;;;;5.82;100.00;102495.88;5061755;28;20181;-63
2023/12/16 02:46:18;;;;;;;5.97;3.70;;;;;;;5.96;100.00;102501.03;5054194;28;20201;-63
2023/12/16 02:48:43;;;;;;;6.40;3.40;;;;;;;5.96;100.00;102506.97;5053156;28;20197;-63
2023/12/16 02:51:20;;;;;;;7.97;3.80;;;;;;;6.04;100.00;102507.06;5058530;28;20261;-64
2023/12/16 02:53:45;;;;;;;8.90;3.97;;;;;;;6.05;100.00;102511.28;5047368;28;20187;-64
2023/12/16 02:56:11;;;;;;;8.40;3.93;;;;;;;6.06;100.00;102507.06;5054181;28;20268;-64
2023/12/16 02:58:36;;;;;;;8.43;4.33;;;;;;;5.89;100.00;102502.72;5060857;28;20242;-64
2023/12/16 03:01:02;;;;;;;7.43;3.43;;;;;;;5.88;100.00;102501.00;5070908;28;20714;-64
2023/12/16 03:06:50;;;;;;;10.10;3.97;;;;;;;5.77;100.00;102498.41;5048546;28;20238;-64
2023/12/16 03:09:15;;;;;;;10.73;3.97;;;;;;;5.84;100.00;102486.50;5058164;28;20193;-62
2023/12/16 03:11:40;;;;;;;9.40;3.80;;;;;;;5.94;100.00;102495.06;5056135;28;20643;-63
2023/12/16 03:14:06;;;;;;;8.50;3.90;;;;;;;6.07;100.00;102486.59;5056622;28;20188;-63
2023/12/16 03:16:33;;;;;;;10.13;4.57;;;;;;;6.09;100.00;102495.16;5053184;28;20193;-63
2023/12/16 03:18:58;;;;;;;7.63;4.10;;;;;;;6.25;100.00;102484.94;5052184;28;20669;-63
2023/12/16 03:21:24;;;;;;;5.30;3.47;;;;;;;6.18;100.00;102486.66;5053178;28;20212;-64
2023/12/16 03:23:49;;;;;;;11.17;3.67;;;;;;;6.19;100.00;102488.34;5058317;28;20239;-63
2023/12/16 03:26:14;;;;;;;8.43;3.77;;;;;;;6.23;100.00;102496.88;5053769;28;20185;-64
2023/12/16 03:28:40;;;;;;;7.80;3.97;;;;;;;6.07;100.00;102498.53;5052826;28;20205;-64
2023/12/16 03:31:05;;;;;;;7.70;3.60;;;;;;;5.94;100.00;102498.47;5050844;28;20244;-64
2023/12/16 03:33:30;;;;;;;9.03;3.43;;;;;;;6.13;100.00;102490.91;5060538;28;20607;-63
2023/12/16 03:35:56;;;;;;;8.80;4.37;;;;;;;6.10;100.00;102494.31;5052199;28;20178;-64
2023/12/16 03:38:21;;;;;;;13.97;3.97;;;;;;;6.04;100.00;102494.28;5052951;28;20188;-64
2023/12/16 03:40:46;;;;;;;7.93;3.67;;;;;;;5.79;100.00;102488.19;5048600;28;20244;-64
2023/12/16 03:43:11;;;;;;;8.77;3.57;;;;;;;5.90;100.00;102494.19;5062723;28;20185;-64
2023/12/16 03:45:37;;;;;;;8.17;3.83;;;;;;;6.08;100.00;102490.88;5052900;28;20239;-64
2023/12/16 03:48:02;;;;;;;5.30;3.50;;;;;;;6.07;100.00;102489.16;5052610;28;20268;-64
2023/12/16 03:50:27;;;;;;;8.47;4.07;;;;;;;6.02;100.00;102482.34;5045882;28;20612;-63
2023/12/16 03:52:53;;;;;;;4.90;2.97;;;;;;;5.90;100.00;102486.53;5064945;28;20208;-63
2023/12/16 03:55:18;;;;;;;6.10;4.13;;;;;;;5.93;100.00;102486.53;5052959;28;20563;-63
2023/12/16 03:57:43;;;;;;;6.50;3.60;;;;;;;5.97;100.00;102485.69;5052094;28;20177;-63
2023/12/16 04:00:09;;;;;;;10.03;4.03;;;;;;;6.02;100.00;102485.75;5043268;28;20633;-64
2023/12/16 04:02:34;;;;;;;10.37;4.00;;;;;;;5.71;100.00;102485.59;5051443;28;20243;-64
2023/12/16 04:05:00;;;;;;;10.30;3.87;;;;;;;5.65;100.00;102480.47;5059854;28;20180;-63
2023/12/16 04:07:25;;;;;;;7.20;3.50;;;;;;;5.51;100.00;102488.09;5058500;28;20193;-63
2023/12/16 04:09:50;;;;;;;10.50;3.80;;;;;;;5.64;100.00;102484.75;5039405;28;20198;-63
2023/12/16 04:12:16;;;;;;;8.80;3.93;;;;;;;5.61;100.00;102491.53;5057165;28;20671;-63
2023/12/16 04:14:41;;;;;;;9.17;4.20;;;;;;;5.70;100.00;102491.56;5052104;28;20169;-63
2023/12/16 04:17:06;;;;;;;9.10;3.93;;;;;;;5.92;100.00;102495.06;5052217;28;20279;-64
2023/12/16 04:19:32;;;;;;;8.37;3.70;;;;;;;5.84;100.00;102491.59;5052573;28;20225;-64
2023/12/16 04:21:57;;;;;;;6.97;3.53;;;;;;;5.66;100.00;102484.75;5056870;28;20250;-63
2023/12/16 04:24:23;;;;;;;9.97;4.10;;;;;;;5.70;100.00;102485.63;5052860;28;20186;-63
2023/12/16 04:26:48;;;;;;;6.77;3.40;;;;;;;5.59;100.00;102483.00;5051718;28;20546;-64
2023/12/16 04:29:13;;;;;;;9.53;3.93;;;;;;;5.79;100.00;102486.50;5046581;28;20233;-63
2023/12/16 04:31:39;;;;;;;5.87;3.17;;;;;;;5.89;100.00;102483.97;5029646;28;21070;-63
2023/12/16 04:34:04;;;;;;;7.23;3.60;;;;;;;5.72;100.00;102479.66;5055394;28;20691;-63
2023/12/16 04:36:30;;;;;;;10.50;4.20;;;;;;;5.73;100.00;102483.06;5051667;28;20269;-64
2023/12/16 04:38:56;;;;;;;7.83;4.10;;;;;;;5.68;100.00;102485.63;5052425;28;20632;-64
2023/12/16 04:41:21;;;;;;;11.47;4.00;;;;;;;5.74;100.00;102480.53;5051976;28;20228;-64
2023/12/16 04:43:46;;;;;;;10.50;4.33;;;;;;;5.87;100.00;102486.53;5056509;28;20593;-64
2023/12/16 04:46:12;;;;;;;9.43;3.83;;;;;;;5.85;100.00;102485.66;5050545;28;20188;-62
2023/12/16 04:48:37;;;;;;;5.47;3.90;;;;;;;5.88;100.00;102484.81;5051344;28;20254;-64
2023/12/16 04:51:06;;;;;;;10.50;4.43;;;;;;;5.88;100.00;102483.13;5049537;28;20232;-64
2023/12/16 04:53:35;;;;;;;7.50;3.80;;;;;;;5.88;100.00;102488.25;5059185;28;20640;-64
2023/12/16 04:56:01;;;;;;;9.03;4.00;;;;;;;5.85;100.00;102492.47;5050662;28;20173;-63
2023/12/16 04:58:26;;;;;;;9.30;3.93;;;;;;;5.72;100.00;102494.97;5051437;28;20535;-63
2023/12/16 05:00:52;;;;;;;7.57;4.40;;;;;;;5.71;100.00;102492.44;5048180;28;20353;-63
2023/12/16 05:03:17;;;;;;;13.13;4.63;;;;;;;5.78;100.00;102491.59;5061227;28;20212;-63
2023/12/16 05:05:43;;;;;;;8.10;3.97;;;;;;;5.71;100.00;102495.81;5064498;28;20180;-64
2023/12/16 05:08:09;;;;;;;8.27;3.97;;;;;;;5.85;100.00;102497.59;5057320;28;20177;-63
2023/12/16 05:10:34;;;;;;;9.40;4.13;;;;;;;5.84;100.00;102503.53;5049785;28;20711;-64
2023/12/16 05:12:59;;;;;;;10.63;3.97;;;;;;;5.90;100.00;102506.13;5062052;28;20227;-64
2023/12/16 05:15:24;;;;;;;6.57;3.40;;;;;;;5.95;100.00;102500.19;5051322;28;20185;-64
2023/12/16 05:17:50;;;;;;;8.23;4.27;;;;;;;5.87;100.00;102499.28;5051191;28;20184;-64
2023/12/16 05:20:15;;;;;;;11.40;3.70;;;;;;;5.86;100.00;102500.13;5042780;28;20587;-64
2023/12/16 05:22:40;;;;;;;7.23;3.80;;;;;;;5.90;100.00;102503.56;5064592;28;20270;-64
2023/12/16 05:25:06;;;;;;;6.80;3.97;;;;;;;5.92;100.00;102507.00;5051634;28;20189;-64
2023/12/16 05:27:32;;;;;;;7.33;3.30;;;;;;;5.80;100.00;102510.34;5051385;28;20174;-64
2023/12/16 05:29:58;;;;;;;6.03;3.50;;;;;;;5.64;100.00;102511.97;5051852;28;20205;-64
2023/12/16 05:32:24;;;;;;;7.93;3.70;;;;;;;5.69;100.00;102517.09;5041041;28;20303;-64
2023/12/16 05:34:50;;;;;;;10.57;4.07;;;;;;;5.56;100.00;102518.75;5051408;28;20243;-65
2023/12/16 05:37:15;;;;;;;7.47;4.30;;;;;;;5.47;100.00;102512.75;5051227;28;20178;-63
2023/12/16 05:39:40;;;;;;;5.70;3.40;;;;;;;5.56;100.00;102517.03;5051592;28;20217;-63
2023/12/16 05:42:06;;;;;;;5.97;2.70;;;;;;;5.65;100.00;102517.06;5042135;28;20450;-64
2023/12/16 05:44:31;;;;;;;5.77;3.30;;;;;;;5.71;100.00;102516.25;5056638;28;20178;-63
2023/12/16 05:46:56;;;;;;;6.33;3.60;;;;;;;5.80;100.00;102520.56;5061400;28;20645;-64
2023/12/16 05:49:22;;;;;;;6.33;2.97;;;;;;;5.81;100.00;102520.56;5058651;28;20219;-64
2023/12/16 05:51:48;;;;;;;7.67;2.97;;;;;;;5.88;100.00;102526.56;5061622;28;20602;-64
2023/12/16 05:54:13;;;;;;;9.97;3.23;;;;;;;5.91;100.00;102529.09;5059789;28;20196;-63
2023/12/16 05:56:38;;;;;;;7.13;2.73;;;;;;;5.91;100.00;102531.66;5059474;28;20264;-64
2023/12/16 05:59:03;;;;;;;7.97;3.17;;;;;;;5.89;100.00;102535.06;5056360;28;20177;-64
2023/12/16 06:01:30;;;;;;;8.77;3.73;;;;;;;5.95;100.00;102525.75;5058806;28;20243;-63
2023/12/16 06:03:55;;;;;;;5.77;3.03;;;;;;;5.87;100.00;102527.41;5062026;28;20243;-64
2023/12/16 06:06:20;;;;;;;7.47;3.03;;;;;;;5.66;100.00;102543.47;5067311;28;20177;-65
2023/12/16 06:08:46;;;;;;;9.77;2.90;;;;;;;5.75;100.00;102543.50;5052962;28;20201;-64
2023/12/16 06:11:14;;;;;;;8.60;4.13;;;;;;;5.89;100.00;102530.81;5053247;28;20314;-64
2023/12/16 06:13:40;;;;;;;7.47;3.30;;;;;;;5.76;100.00;102531.59;5071987;28;20680;-64
2023/12/16 06:16:07;;;;;;;7.40;4.10;;;;;;;5.75;100.00;102535.84;5069452;28;20265;-65
2023/12/16 06:18:33;;;;;;;8.67;3.40;;;;;;;5.79;100.00;102529.94;5053912;28;20185;-64
2023/12/16 06:20:58;;;;;;;7.70;3.40;;;;;;;5.66;100.00;102538.38;5046045;28;20278;-64
2023/12/16 06:23:23;;;;;;;6.70;3.00;;;;;;;5.72;100.00;102540.94;5062545;28;20178;-65
2023/12/16 06:25:48;;;;;;;7.80;3.30;;;;;;;5.77;100.00;102533.31;5054256;28;20242;-64
2023/12/16 06:28:14;;;;;;;8.77;3.50;;;;;;;5.76;100.00;102534.16;5054084;28;20178;-65
2023/12/16 06:30:41;;;;;;;7.73;3.93;;;;;;;5.77;100.00;102523.09;5049554;28;20644;-64
2023/12/16 06:33:06;;;;;;;7.73;4.57;;;;;;;5.73;100.00;102529.91;5065055;28;20641;-64
2023/12/16 06:35:31;;;;;;;9.50;6.20;;;;;;;5.86;100.00;102537.63;5054589;28;20178;-63
2023/12/16 06:37:57;;;;;;;11.57;4.50;;;;;;;5.93;100.00;102534.25;5054288;28;20572;-65
2023/12/16 06:40:22;;;;;;;5.97;3.87;;;;;;;5.98;100.00;102538.53;5047107;28;20234;-64
2023/12/16 06:42:47;;;;;;;8.83;3.67;;;;;;;6.00;100.00;102532.59;5066533;28;20170;-64
2023/12/16 06:45:13;;;;;;;10.13;4.10;;;;;;;6.02;100.00;102536.00;5054633;28;20526;-64
2023/12/16 06:47:40;;;;;;;8.83;3.67;;;;;;;6.03;100.00;102535.13;5054064;28;20177;-64
2023/12/16 06:50:07;;;;;;;9.00;3.20;;;;;;;6.02;100.00;102534.28;5044847;28;20243;-62
2023/12/16 06:52:32;;;;;;;6.33;3.70;;;;;;;6.02;100.00;102539.41;5068269;28;20182;-65
2023/12/16 06:54:58;;;;;;;10.77;3.60;;;;;;;5.92;100.00;102530.81;5054153;28;20169;-64
2023/12/16 06:57:23;;;;;;;9.20;3.40;;;;;;;5.95;100.00;102538.50;5054241;28;20180;-64
2023/12/16 06:59:48;;;;;;;10.97;3.83;;;;;;;5.98;100.00;102542.78;5055290;28;20181;-64
2023/12/16 07:02:13;;;;;;;14.60;5.30;;;;;;;5.93;100.00;102544.47;5043647;28;20229;-64
2023/12/16 07:04:39;;;;;;;16.43;5.53;;;;;;;5.93;100.00;102542.75;5056803;28;20181;-65
2023/12/16 07:07:04;;;;;;;18.17;6.50;;;;;;;5.75;100.00;102548.63;5073177;28;20188;-64
2023/12/16 07:09:29;;;;;;;17.10;7.83;;;;;;;6.01;100.00;102550.47;5073121;28;20231;-64
2023/12/16 07:11:54;;;;;;;21.10;10.53;;;;;;;6.08;100.00;102552.19;5077660;28;20234;-64
2023/12/16 07:14:20;;;;;;;14.03;6.87;;;;;;;5.99;100.00;102559.81;5071862;28;20185;-64
2023/12/16 07:16:45;;;;;;;11.97;5.63;;;;;;;5.92;100.00;102570.84;5072723;28;20245;-64
2023/12/16 07:19:10;;;;;;;16.40;6.40;;;;;;;6.10;100.00;102565.84;5073049;28;20216;-64
2023/12/16 07:21:40;;;;;;;19.90;9.30;;;;;;;6.19;100.00;102567.59;5075120;28;20231;-64
2023/12/16 07:24:06;;;;;;;22.97;10.67;;;;;;;6.26;100.00;102569.31;5075062;28;20173;-65
2023/12/16 07:26:31;;;;;;;20.17;9.10;;;;;;;6.24;100.00;102575.25;5071730;28;20214;-65
2023/12/16 07:28:56;;;;;;;13.97;6.40;;;;;;;6.26;100.00;102574.44;5072123;28;20204;-64
2023/12/16 07:31:22;;;;;;;11.23;5.33;;;;;;;6.26;100.00;102581.22;5073664;27;20232;-64
2023/12/16 07:33:47;;;;;;;10.57;4.50;;;;;;;6.34;100.00;102574.44;5065239;28;20169;-65
2023/12/16 07:36:13;;;;;;;8.27;3.77;;;;;;;6.30;100.00;102583.81;5073098;28;20173;-65
2023/12/16 07:38:38;;;;;;;7.60;4.40;;;;;;;6.16;100.00;102575.22;5069628;28;20597;-65
2023/12/16 07:41:03;;;;;;;13.17;6.10;;;;;;;6.32;100.00;102573.56;5054364;28;20236;-64
2023/12/16 07:43:28;;;;;;;17.80;7.93;;;;;;;6.30;100.00;102580.38;5069450;28;20203;-65
2023/12/16 07:45:54;;;;;;;19.07;8.90;;;;;;;6.35;100.00;102578.72;5068309;28;20177;-64
2023/12/16 07:48:19;;;;;;;13.83;7.80;;;;;;;6.40;100.00;102578.69;5066144;28;20193;-64
2023/12/16 07:50:45;;;;;;;11.03;4.73;;;;;;;6.40;100.00;102574.47;5060857;28;20231;-66
2023/12/16 07:53:10;;;;;;;6.77;3.00;;;;;;;6.32;100.00;102576.13;5073307;28;20173;-66
2023/12/16 07:55:35;;;;;;;11.70;4.20;;;;;;;6.14;100.00;102577.78;5066361;28;20229;-65
2023/12/16 07:58:01;;;;;;;13.13;4.00;;;;;;;5.96;100.00;102581.06;5064433;28;20519;-63
2023/12/16 08:00:27;;;;;;;9.10;2.77;;;;;;;5.97;100.00;102585.34;5056076;28;20224;-66
2023/12/16 08:02:52;;;;;;;6.47;3.67;;;;;;;6.12;100.00;102586.28;5069054;28;20176;-65
2023/12/16 08:05:18;;;;;;;7.53;3.93;;;;;;;6.15;100.00;102591.41;5066288;28;20183;-65
2023/12/16 08:07:45;;;;;;;9.77;4.07;;;;;;;6.14;100.00;102595.66;5066260;28;20178;-65
2023/12/16 08:10:10;;;;;;;8.67;4.13;;;;;;;6.11;100.00;102599.91;5040421;28;20671;-63
2023/12/16 08:12:35;;;;;;;9.57;4.10;;;;;;;6.17;100.00;102597.38;5068124;28;20213;-64
2023/12/16 08:15:04;;;;;;;8.03;4.13;;;;;;;5.98;100.00;102596.44;5071390;28;20204;-64
2023/12/16 08:17:29;;;;;;;12.23;4.63;;;;;;;5.95;100.00;102599.81;5068503;28;20200;-63
2023/12/16 08:19:54;;;;;;;10.67;4.27;;;;;;;6.08;100.00;102613.53;5070084;28;20220;-64
2023/12/16 08:22:20;;;;;;;9.70;4.50;;;;;;;6.31;100.00;102612.75;5069127;28;20704;-63
2023/12/16 08:24:45;;;;;;;11.43;4.80;;;;;;;6.38;100.00;102618.78;5056913;28;20181;-65
2023/12/16 08:27:10;;;;;;;11.97;4.80;;;;;;;6.40;100.00;102611.94;5056705;28;20181;-64
2023/12/16 08:29:36;;;;;;;8.83;4.53;;;;;;;6.41;100.00;102619.63;5057034;28;20567;-64
2023/12/16 08:32:01;;;;;;;10.23;4.37;;;;;;;6.39;100.00;102623.88;5036476;28;20255;-64
2023/12/16 08:34:27;;;;;;;10.70;6.53;;;;;;;6.52;100.00;102629.88;5054193;28;20639;-65
2023/12/16 08:36:54;;;;;;;12.17;6.67;;;;;;;6.60;100.00;102633.31;5055866;28;20199;-65
2023/12/16 08:39:20;;;;;;;8.73;5.80;;;;;;;6.56;100.00;102628.19;5055717;28;20272;-64
2023/12/16 08:41:45;;;;;;;9.23;4.73;;;;;;;6.57;100.00;102635.88;5060309;27;20359;-64
2023/12/16 08:44:10;;;;;;;11.03;4.90;;;;;;;6.49;100.00;102641.81;5058911;28;20188;-64
2023/12/16 08:46:40;;;;;;;9.70;4.67;;;;;;;6.37;100.00;102645.19;5055788;28;20204;-64
2023/12/16 08:49:05;;;;;;;10.93;5.17;;;;;;;6.63;100.00;102648.66;5056769;28;20844;-64
2023/12/16 08:51:30;;;;;;;7.40;4.57;;;;;;;6.83;100.00;102654.69;5055826;28;20217;-64
2023/12/16 08:53:55;;;;;;;8.50;3.53;;;;;;;6.91;100.00;102655.56;5044928;28;20185;-64
2023/12/16 08:56:21;;;;;;;6.70;4.07;;;;;;;6.84;100.00;102656.41;5058977;28;20185;-63
2023/12/16 08:58:46;;;;;;;8.77;3.73;;;;;;;6.70;100.00;102662.34;5059406;28;20189;-63
2023/12/16 09:01:11;;;;;;;7.53;4.23;;;;;;;6.81;100.00;102658.94;5057741;28;20236;-64
2023/12/16 09:03:37;;;;;;;10.50;4.20;;;;;;;6.75;100.00;102665.75;5056385;28;20183;-63
2023/12/16 09:06:02;;;;;;;8.17;3.63;;;;;;;6.69;100.00;102662.34;5066678;28;20210;-63
2023/12/16 09:08:28;;;;;;;8.73;3.93;;;;;;;6.74;100.00;102663.22;5070330;28;20192;-63
2023/12/16 09:10:53;;;;;;;6.87;3.50;;;;;;;6.84;100.00;102664.09;5066529;28;20241;-64
2023/12/16 09:13:18;;;;;;;8.83;2.90;;;;;;;6.93;100.00;102654.72;5069347;28;20246;-64
2023/12/16 09:15:44;;;;;;;11.67;3.80;;;;;;;7.00;100.00;102653.03;5069378;28;20187;-63
2023/12/16 09:18:10;;;;;;;7.50;4.30;;;;;;;7.00;100.00;102655.56;5066846;28;20342;-63
2023/12/16 09:20:36;;;;;;;9.63;4.50;;;;;;;7.14;100.00;102653.03;5056496;28;20240;-63
2023/12/16 09:23:01;;;;;;;25.53;10.57;;;;;;;7.17;100.00;102663.28;5060101;28;20648;-63
2023/12/16 09:25:26;;;;;;;35.50;11.70;;;;;;;7.34;100.00;102660.72;5060814;28;20231;-64
2023/12/16 09:27:52;;;;;;;21.00;8.37;;;;;;;7.21;100.00;102659.88;5065581;28;20718;-64
2023/12/16 09:30:19;;;;;;;19.87;9.00;;;;;;;7.31;100.00;102655.59;5052635;28;20209;-64
2023/12/16 09:32:45;;;;;;;11.90;5.43;;;;;;;7.49;100.00;102656.44;5047987;28;20199;-63
2023/12/16 09:35:10;;;;;;;6.63;3.20;;;;;;;7.36;100.00;102664.13;5060367;28;20182;-62
2023/12/16 09:37:35;;;;;;;6.50;2.90;;;;;;;7.58;100.00;102653.91;5066305;28;20224;-63
2023/12/16 09:40:01;;;;;;;6.93;2.97;;;;;;;7.65;100.00;102663.25;5062657;28;20209;-63
2023/12/16 09:42:28;;;;;;;4.33;2.40;;;;;;;7.77;100.00;102664.97;5067826;28;20213;-63
2023/12/16 09:44:57;;;;;;;7.70;4.13;;;;;;;7.87;100.00;102663.25;5061652;28;20307;-63
2023/12/16 09:47:24;;;;;;;12.73;3.40;;;;;;;7.79;100.00;102653.00;5066154;28;20268;-64
2023/12/16 09:49:50;;;;;;;7.50;3.93;;;;;;;7.79;100.00;102653.00;5062523;28;20197;-64
2023/12/16 09:52:16;;;;;;;6.50;3.20;;;;;;;7.87;100.00;102647.88;5072346;28;20227;-64
2023/12/16 09:54:41;;;;;;;6.97;3.03;;;;;;;8.12;100.00;102645.22;5061880;28;20204;-63
2023/12/16 09:57:09;;;;;;;9.60;3.23;;;;;;;7.97;100.00;102646.13;5066635;28;20205;-64
2023/12/16 09:59:36;;;;;;;5.10;2.80;;;;;;;7.98;100.00;102653.81;5063131;28;20193;-63
2023/12/16 10:02:12;;;;;;;5.87;3.00;;;;;;;7.91;100.00;102647.84;5058256;28;20298;-64
2023/12/16 10:04:38;;;;;;;7.13;3.83;;;;;;;7.93;100.00;102652.13;5060503;28;20200;-64
2023/12/16 10:07:04;;;;;;;7.70;4.07;;;;;;;8.00;100.00;102653.78;5060001;28;20173;-63
2023/12/16 10:09:29;;;;;;;9.37;3.80;;;;;;;8.12;100.00;102652.91;5050817;28;20786;-63
2023/12/16 10:11:57;;;;;;;10.97;4.43;;;;;;;8.19;100.00;102649.47;5055053;28;20624;-63
2023/12/16 10:14:22;;;;;;;11.77;4.50;;;;;;;8.26;100.00;102653.75;5051275;28;20686;-63
2023/12/16 10:16:48;;;;;;;10.27;3.90;;;;;;;7.79;100.00;102650.44;5050381;28;20236;-64
2023/12/16 10:19:13;;;;;;;9.63;4.33;;;;;;;7.98;100.00;102651.25;5050707;28;20225;-64
2023/12/16 10:21:40;;;;;;;6.87;3.83;;;;;;;8.08;100.00;102645.22;5053143;28;20216;-64
2023/12/16 10:24:05;;;;;;;10.90;4.10;;;;;;;7.97;100.00;102646.97;5054766;28;20655;-63
2023/12/16 10:26:33;;;;;;;9.17;3.73;;;;;;;7.99;100.00;102641.84;5069937;28;20181;-64
2023/12/16 10:29:00;;;;;;;14.00;4.80;;;;;;;8.06;100.00;102644.41;5071772;28;20250;-63
2023/12/16 10:31:26;;;;;;;12.10;6.77;;;;;;;8.18;100.00;102643.47;5074331;28;20228;-63
2023/12/16 10:33:51;;;;;;;9.87;5.67;;;;;;;8.34;100.00;102643.44;5077325;28;20534;-64
2023/12/16 10:36:17;;;;;;;11.17;4.43;;;;;;;8.04;100.00;102640.13;5073624;28;20192;-64
2023/12/16 10:38:42;;;;;;;9.10;4.00;;;;;;;8.19;100.00;102642.63;5071920;28;20185;-64
2023/12/16 10:41:08;;;;;;;10.37;4.17;;;;;;;8.43;100.00;102640.81;5065067;28;20286;-64
2023/12/16 10:43:34;;;;;;;8.93;3.27;;;;;;;8.55;100.00;102640.78;5072152;28;20196;-64
2023/12/16 10:46:04;;;;;;;8.53;3.87;;;;;;;8.50;100.00;102642.53;5073619;28;20673;-64
2023/12/16 10:48:34;;;;;;;4.63;3.03;;;;;;;8.59;100.00;102639.06;5072260;28;20180;-63
2023/12/16 10:51:05;;;;;;;6.33;3.40;;;;;;;8.63;100.00;102634.78;5069841;28;20261;-63
2023/12/16 10:53:57;;;;;;;9.67;3.47;;;;;;;8.60;100.00;102640.78;5081130;28;20189;-63
2023/12/16 10:56:30;;;;;;;10.63;2.60;;;;;;;8.63;100.00;102647.59;5068838;28;20188;-64
2023/12/16 10:59:11;;;;;;;6.70;3.40;;;;;;;8.74;100.00;102650.09;5073194;28;20541;-63
2023/12/16 11:01:45;;;;;;;11.10;4.20;;;;;;;8.55;100.00;102652.78;5044002;28;20227;-63
2023/12/16 11:04:16;;;;;;;9.23;3.70;;;;;;;8.52;100.00;102648.50;5070596;28;20322;-64
2023/12/16 11:06:56;;;;;;;4.83;3.10;;;;;;;8.75;100.00;102656.94;5069602;28;20189;-63
2023/12/16 11:09:21;;;;;;;10.53;2.83;;;;;;;8.87;100.00;102651.75;5058721;28;20701;-63
2023/12/16 11:11:47;;;;;;;11.93;3.10;;;;;;;8.95;100.00;102647.38;5076556;28;20254;-64
2023/12/16 11:14:14;;;;;;;8.63;3.17;;;;;;;9.04;100.00;102642.22;5067921;28;20666;-63
2023/12/16 11:16:57;;;;;;;10.07;3.33;;;;;;;9.13;100.00;102627.56;5059087;28;20220;-63
2023/12/16 11:19:25;;;;;;;10.60;3.00;;;;;;;8.97;100.00;102640.53;5058068;28;20229;-63